sensor_id;sensor_type;location;lat;lon;timestamp;P1;durP1;ratioP1;P2;durP2;ratioP2
25824;SDS011;13658;44.534;18.694;2023-03-23T00:02:06;74.40;;;38.05;;
25824;SDS011;13658;44.534;18.694;2023-03-23T00:04:32;72.43;;;36.10;;
25824;SDS011;13658;44.534;18.694;2023-03-23T00:06:58;72.38;;;36.05;;
25824;SDS011;13658;44.534;18.694;2023-03-23T00:09:28;79.75;;;39.22;;
25824;SDS011;13658;44.534;18.694;2023-03-23T00:11:55;85.88;;;40.45;;
25824;SDS011;13658;44.534;18.694;2023-03-23T00:14:31;70.85;;;37.97;;
25824;SDS011;13658;44.534;18.694;2023-03-23T00:17:09;73.22;;;38.63;;
25824;SDS011;13658;44.534;18.694;2023-03-23T00:19:38;74.00;;;39.65;;
25824;SDS011;13658;44.534;18.694;2023-03-23T00:22:13;84.65;;;42.85;;
25824;SDS011;13658;44.534;18.694;2023-03-23T00:24:42;75.25;;;38.17;;
25824;SDS011;13658;44.534;18.694;2023-03-23T00:27:09;76.07;;;38.55;;
25824;SDS011;13658;44.534;18.694;2023-03-23T00:29:38;76.78;;;38.75;;
25824;SDS011;13658;44.534;18.694;2023-03-23T00:32:06;75.32;;;39.58;;
25824;SDS011;13658;44.534;18.694;2023-03-23T00:34:37;74.15;;;37.70;;
25824;SDS011;13658;44.534;18.694;2023-03-23T00:37:05;62.63;;;32.97;;
25824;SDS011;13658;44.534;18.694;2023-03-23T00:39:32;66.72;;;32.88;;
25824;SDS011;13658;44.534;18.694;2023-03-23T00:41:58;61.08;;;33.42;;
25824;SDS011;13658;44.534;18.694;2023-03-23T00:44:28;66.50;;;33.45;;
25824;SDS011;13658;44.534;18.694;2023-03-23T00:46:57;60.47;;;32.80;;
25824;SDS011;13658;44.534;18.694;2023-03-23T00:49:24;60.83;;;32.92;;
25824;SDS011;13658;44.534;18.694;2023-03-23T00:51:51;61.65;;;32.75;;
25824;SDS011;13658;44.534;18.694;2023-03-23T00:54:19;56.72;;;28.35;;
25824;SDS011;13658;44.534;18.694;2023-03-23T00:56:48;54.17;;;27.67;;
25824;SDS011;13658;44.534;18.694;2023-03-23T00:59:14;53.00;;;27.75;;
25824;SDS011;13658;44.534;18.694;2023-03-23T01:01:41;51.97;;;28.50;;
25824;SDS011;13658;44.534;18.694;2023-03-23T01:04:07;59.38;;;30.73;;
25824;SDS011;13658;44.534;18.694;2023-03-23T01:06:34;57.88;;;29.95;;
25824;SDS011;13658;44.534;18.694;2023-03-23T01:09:07;54.10;;;30.55;;
25824;SDS011;13658;44.534;18.694;2023-03-23T01:11:35;52.85;;;30.00;;
25824;SDS011;13658;44.534;18.694;2023-03-23T01:14:04;56.60;;;30.48;;
25824;SDS011;13658;44.534;18.694;2023-03-23T01:16:30;58.33;;;30.63;;
25824;SDS011;13658;44.534;18.694;2023-03-23T01:18:56;54.97;;;29.83;;
25824;SDS011;13658;44.534;18.694;2023-03-23T01:21:22;53.95;;;29.55;;
25824;SDS011;13658;44.534;18.694;2023-03-23T01:23:50;51.60;;;28.42;;
25824;SDS011;13658;44.534;18.694;2023-03-23T01:26:18;50.58;;;27.25;;
25824;SDS011;13658;44.534;18.694;2023-03-23T01:28:45;48.55;;;25.50;;
25824;SDS011;13658;44.534;18.694;2023-03-23T01:31:13;45.65;;;25.13;;
25824;SDS011;13658;44.534;18.694;2023-03-23T01:33:41;44.10;;;25.10;;
25824;SDS011;13658;44.534;18.694;2023-03-23T01:36:18;44.95;;;24.60;;
25824;SDS011;13658;44.534;18.694;2023-03-23T01:38:47;44.90;;;25.42;;
25824;SDS011;13658;44.534;18.694;2023-03-23T01:41:15;47.78;;;26.60;;
25824;SDS011;13658;44.534;18.694;2023-03-23T01:43:59;45.00;;;26.50;;
25824;SDS011;13658;44.534;18.694;2023-03-23T01:46:35;47.85;;;26.52;;
25824;SDS011;13658;44.534;18.694;2023-03-23T01:49:09;55.10;;;28.75;;
25824;SDS011;13658;44.534;18.694;2023-03-23T01:51:58;53.88;;;27.80;;
25824;SDS011;13658;44.534;18.694;2023-03-23T01:54:28;51.45;;;26.77;;
25824;SDS011;13658;44.534;18.694;2023-03-23T01:56:59;45.95;;;25.15;;
25824;SDS011;13658;44.534;18.694;2023-03-23T01:59:29;46.00;;;25.65;;
25824;SDS011;13658;44.534;18.694;2023-03-23T02:02:15;50.42;;;25.83;;
25824;SDS011;13658;44.534;18.694;2023-03-23T02:04:43;52.10;;;26.05;;
25824;SDS011;13658;44.534;18.694;2023-03-23T02:07:10;51.22;;;26.95;;
25824;SDS011;13658;44.534;18.694;2023-03-23T02:09:37;52.05;;;28.42;;
25824;SDS011;13658;44.534;18.694;2023-03-23T02:12:04;54.30;;;29.00;;
25824;SDS011;13658;44.534;18.694;2023-03-23T02:14:31;51.90;;;28.52;;
25824;SDS011;13658;44.534;18.694;2023-03-23T02:17:12;49.20;;;27.05;;
25824;SDS011;13658;44.534;18.694;2023-03-23T02:31:08;41.05;;;22.90;;
25824;SDS011;13658;44.534;18.694;2023-03-23T02:36:28;39.72;;;21.35;;
25824;SDS011;13658;44.534;18.694;2023-03-23T02:39:28;37.30;;;20.17;;
25824;SDS011;13658;44.534;18.694;2023-03-23T02:41:58;43.20;;;21.27;;
25824;SDS011;13658;44.534;18.694;2023-03-23T02:44:30;39.53;;;20.85;;
25824;SDS011;13658;44.534;18.694;2023-03-23T02:46:59;38.10;;;21.33;;
25824;SDS011;13658;44.534;18.694;2023-03-23T02:49:29;29.50;;;17.33;;
25824;SDS011;13658;44.534;18.694;2023-03-23T02:51:58;29.65;;;17.42;;
25824;SDS011;13658;44.534;18.694;2023-03-23T02:54:26;36.47;;;19.77;;
25824;SDS011;13658;44.534;18.694;2023-03-23T02:56:54;36.42;;;20.67;;
25824;SDS011;13658;44.534;18.694;2023-03-23T02:59:28;38.53;;;20.38;;
25824;SDS011;13658;44.534;18.694;2023-03-23T03:02:00;35.00;;;20.48;;
25824;SDS011;13658;44.534;18.694;2023-03-23T03:04:31;35.25;;;19.63;;
25824;SDS011;13658;44.534;18.694;2023-03-23T03:07:02;35.25;;;19.75;;
25824;SDS011;13658;44.534;18.694;2023-03-23T03:12:36;40.65;;;22.17;;
25824;SDS011;13658;44.534;18.694;2023-03-23T03:15:25;35.65;;;20.52;;
25824;SDS011;13658;44.534;18.694;2023-03-23T03:18:01;39.45;;;19.98;;
25824;SDS011;13658;44.534;18.694;2023-03-23T03:20:33;35.42;;;19.45;;
25824;SDS011;13658;44.534;18.694;2023-03-23T03:23:03;33.78;;;20.33;;
25824;SDS011;13658;44.534;18.694;2023-03-23T03:25:33;32.63;;;19.95;;
25824;SDS011;13658;44.534;18.694;2023-03-23T03:28:01;40.33;;;23.45;;
25824;SDS011;13658;44.534;18.694;2023-03-23T03:30:40;30.45;;;18.50;;
25824;SDS011;13658;44.534;18.694;2023-03-23T03:33:10;35.60;;;18.98;;
25824;SDS011;13658;44.534;18.694;2023-03-23T03:35:38;34.15;;;19.25;;
25824;SDS011;13658;44.534;18.694;2023-03-23T03:38:08;35.10;;;20.00;;
25824;SDS011;13658;44.534;18.694;2023-03-23T03:40:35;37.50;;;20.45;;
25824;SDS011;13658;44.534;18.694;2023-03-23T03:43:02;37.72;;;20.02;;
25824;SDS011;13658;44.534;18.694;2023-03-23T03:45:28;35.50;;;19.73;;
25824;SDS011;13658;44.534;18.694;2023-03-23T03:47:55;30.25;;;18.70;;
25824;SDS011;13658;44.534;18.694;2023-03-23T03:50:21;33.88;;;20.13;;
25824;SDS011;13658;44.534;18.694;2023-03-23T03:52:48;35.38;;;19.88;;
25824;SDS011;13658;44.534;18.694;2023-03-23T03:55:14;32.35;;;19.30;;
25824;SDS011;13658;44.534;18.694;2023-03-23T03:57:45;37.38;;;20.77;;
25824;SDS011;13658;44.534;18.694;2023-03-23T04:00:17;37.00;;;20.88;;
25824;SDS011;13658;44.534;18.694;2023-03-23T04:02:46;34.15;;;20.20;;
25824;SDS011;13658;44.534;18.694;2023-03-23T04:05:31;32.75;;;17.08;;
25824;SDS011;13658;44.534;18.694;2023-03-23T04:07:58;37.05;;;21.67;;
25824;SDS011;13658;44.534;18.694;2023-03-23T04:10:31;37.53;;;20.25;;
25824;SDS011;13658;44.534;18.694;2023-03-23T04:12:59;34.20;;;19.92;;
25824;SDS011;13658;44.534;18.694;2023-03-23T04:15:58;34.55;;;19.27;;
25824;SDS011;13658;44.534;18.694;2023-03-23T04:18:24;36.90;;;20.40;;
25824;SDS011;13658;44.534;18.694;2023-03-23T04:20:51;36.20;;;19.77;;
25824;SDS011;13658;44.534;18.694;2023-03-23T04:23:20;35.03;;;19.10;;
25824;SDS011;13658;44.534;18.694;2023-03-23T04:25:48;37.92;;;19.90;;
25824;SDS011;13658;44.534;18.694;2023-03-23T04:28:17;33.33;;;18.85;;
25824;SDS011;13658;44.534;18.694;2023-03-23T04:31:03;35.33;;;18.73;;
25824;SDS011;13658;44.534;18.694;2023-03-23T04:33:29;34.08;;;19.02;;
25824;SDS011;13658;44.534;18.694;2023-03-23T04:35:59;33.97;;;20.05;;
25824;SDS011;13658;44.534;18.694;2023-03-23T04:38:52;34.15;;;19.50;;
25824;SDS011;13658;44.534;18.694;2023-03-23T04:41:22;35.25;;;20.00;;
25824;SDS011;13658;44.534;18.694;2023-03-23T04:43:59;35.78;;;19.75;;
25824;SDS011;13658;44.534;18.694;2023-03-23T04:46:37;36.45;;;19.77;;
25824;SDS011;13658;44.534;18.694;2023-03-23T04:49:10;38.97;;;21.08;;
25824;SDS011;13658;44.534;18.694;2023-03-23T04:51:39;43.40;;;21.27;;
25824;SDS011;13658;44.534;18.694;2023-03-23T04:54:19;37.38;;;21.30;;
25824;SDS011;13658;44.534;18.694;2023-03-23T04:56:50;43.55;;;22.23;;
25824;SDS011;13658;44.534;18.694;2023-03-23T04:59:16;38.63;;;21.25;;
25824;SDS011;13658;44.534;18.694;2023-03-23T05:01:56;40.35;;;22.60;;
25824;SDS011;13658;44.534;18.694;2023-03-23T05:04:23;47.72;;;23.13;;
25824;SDS011;13658;44.534;18.694;2023-03-23T05:07:10;45.13;;;23.95;;
25824;SDS011;13658;44.534;18.694;2023-03-23T05:09:46;49.67;;;25.45;;
25824;SDS011;13658;44.534;18.694;2023-03-23T05:12:14;52.15;;;27.73;;
25824;SDS011;13658;44.534;18.694;2023-03-23T05:14:48;46.08;;;24.23;;
25824;SDS011;13658;44.534;18.694;2023-03-23T05:17:17;46.13;;;23.92;;
25824;SDS011;13658;44.534;18.694;2023-03-23T05:19:45;45.40;;;24.45;;
25824;SDS011;13658;44.534;18.694;2023-03-23T05:22:40;45.30;;;25.55;;
25824;SDS011;13658;44.534;18.694;2023-03-23T05:25:08;43.92;;;24.88;;
25824;SDS011;13658;44.534;18.694;2023-03-23T05:27:38;49.63;;;27.60;;
25824;SDS011;13658;44.534;18.694;2023-03-23T05:30:20;57.35;;;28.98;;
25824;SDS011;13658;44.534;18.694;2023-03-23T05:32:47;58.53;;;30.95;;
25824;SDS011;13658;44.534;18.694;2023-03-23T05:35:39;57.97;;;31.52;;
25824;SDS011;13658;44.534;18.694;2023-03-23T05:38:06;56.70;;;29.45;;
25824;SDS011;13658;44.534;18.694;2023-03-23T05:40:31;34.67;;;19.42;;
25824;SDS011;13658;44.534;18.694;2023-03-23T05:43:08;30.98;;;18.25;;
25824;SDS011;13658;44.534;18.694;2023-03-23T05:45:53;31.85;;;16.92;;
25824;SDS011;13658;44.534;18.694;2023-03-23T05:48:20;29.05;;;17.00;;
25824;SDS011;13658;44.534;18.694;2023-03-23T05:50:47;33.28;;;17.00;;
25824;SDS011;13658;44.534;18.694;2023-03-23T05:53:13;28.15;;;17.05;;
25824;SDS011;13658;44.534;18.694;2023-03-23T05:55:39;34.58;;;19.92;;
25824;SDS011;13658;44.534;18.694;2023-03-23T05:58:18;41.00;;;22.30;;
25824;SDS011;13658;44.534;18.694;2023-03-23T06:00:46;40.00;;;23.30;;
25824;SDS011;13658;44.534;18.694;2023-03-23T06:03:19;40.22;;;22.70;;
25824;SDS011;13658;44.534;18.694;2023-03-23T06:05:56;39.90;;;20.83;;
25824;SDS011;13658;44.534;18.694;2023-03-23T06:08:30;35.70;;;22.17;;
25824;SDS011;13658;44.534;18.694;2023-03-23T06:10:56;38.50;;;22.70;;
25824;SDS011;13658;44.534;18.694;2023-03-23T06:13:22;38.80;;;24.50;;
25824;SDS011;13658;44.534;18.694;2023-03-23T06:15:54;38.67;;;24.05;;
25824;SDS011;13658;44.534;18.694;2023-03-23T06:18:42;32.17;;;21.17;;
25824;SDS011;13658;44.534;18.694;2023-03-23T06:21:31;34.05;;;21.75;;
25824;SDS011;13658;44.534;18.694;2023-03-23T06:24:18;28.65;;;18.75;;
25824;SDS011;13658;44.534;18.694;2023-03-23T06:26:44;32.72;;;22.63;;
25824;SDS011;13658;44.534;18.694;2023-03-23T06:29:16;29.50;;;20.13;;
25824;SDS011;13658;44.534;18.694;2023-03-23T06:31:47;38.60;;;23.88;;
25824;SDS011;13658;44.534;18.694;2023-03-23T06:34:16;38.83;;;22.15;;
25824;SDS011;13658;44.534;18.694;2023-03-23T06:37:01;30.13;;;20.02;;
25824;SDS011;13658;44.534;18.694;2023-03-23T06:39:35;34.67;;;19.70;;
25824;SDS011;13658;44.534;18.694;2023-03-23T06:42:15;33.05;;;21.38;;
25824;SDS011;13658;44.534;18.694;2023-03-23T06:44:46;33.78;;;21.63;;
25824;SDS011;13658;44.534;18.694;2023-03-23T06:47:13;35.08;;;21.20;;
25824;SDS011;13658;44.534;18.694;2023-03-23T06:49:45;35.53;;;23.73;;
25824;SDS011;13658;44.534;18.694;2023-03-23T06:52:22;34.03;;;23.08;;
25824;SDS011;13658;44.534;18.694;2023-03-23T06:54:50;35.17;;;23.55;;
25824;SDS011;13658;44.534;18.694;2023-03-23T06:57:25;40.20;;;24.65;;
25824;SDS011;13658;44.534;18.694;2023-03-23T06:59:51;40.05;;;27.10;;
25824;SDS011;13658;44.534;18.694;2023-03-23T07:02:18;41.58;;;27.95;;
25824;SDS011;13658;44.534;18.694;2023-03-23T07:04:48;36.97;;;27.20;;
25824;SDS011;13658;44.534;18.694;2023-03-23T07:07:20;36.22;;;25.60;;
25824;SDS011;13658;44.534;18.694;2023-03-23T07:09:52;38.50;;;26.48;;
25824;SDS011;13658;44.534;18.694;2023-03-23T07:12:22;39.25;;;27.48;;
25824;SDS011;13658;44.534;18.694;2023-03-23T07:14:50;43.47;;;29.70;;
25824;SDS011;13658;44.534;18.694;2023-03-23T07:17:16;39.67;;;29.88;;
25824;SDS011;13658;44.534;18.694;2023-03-23T07:20:01;40.85;;;29.35;;
25824;SDS011;13658;44.534;18.694;2023-03-23T07:22:28;43.78;;;30.98;;
25824;SDS011;13658;44.534;18.694;2023-03-23T07:25:03;34.22;;;24.20;;
25824;SDS011;13658;44.534;18.694;2023-03-23T07:27:41;25.42;;;19.98;;
25824;SDS011;13658;44.534;18.694;2023-03-23T07:30:07;26.73;;;18.80;;
25824;SDS011;13658;44.534;18.694;2023-03-23T07:32:34;24.52;;;18.75;;
25824;SDS011;13658;44.534;18.694;2023-03-23T07:35:00;23.85;;;18.20;;
25824;SDS011;13658;44.534;18.694;2023-03-23T07:37:36;16.75;;;13.52;;
25824;SDS011;13658;44.534;18.694;2023-03-23T07:40:03;18.20;;;12.68;;
25824;SDS011;13658;44.534;18.694;2023-03-23T07:42:42;19.33;;;13.40;;
25824;SDS011;13658;44.534;18.694;2023-03-23T07:45:10;16.08;;;13.27;;
25824;SDS011;13658;44.534;18.694;2023-03-23T07:47:38;18.95;;;12.52;;
25824;SDS011;13658;44.534;18.694;2023-03-23T07:50:07;14.15;;;11.82;;
25824;SDS011;13658;44.534;18.694;2023-03-23T07:52:38;12.15;;;9.52;;
25824;SDS011;13658;44.534;18.694;2023-03-23T07:55:05;12.15;;;8.65;;
25824;SDS011;13658;44.534;18.694;2023-03-23T07:57:44;18.52;;;11.13;;
25824;SDS011;13658;44.534;18.694;2023-03-23T08:00:12;10.80;;;9.00;;
25824;SDS011;13658;44.534;18.694;2023-03-23T08:02:45;10.52;;;8.75;;
25824;SDS011;13658;44.534;18.694;2023-03-23T08:05:33;12.88;;;9.68;;
25824;SDS011;13658;44.534;18.694;2023-03-23T08:08:02;16.17;;;10.13;;
25824;SDS011;13658;44.534;18.694;2023-03-23T08:10:48;15.88;;;12.15;;
25824;SDS011;13658;44.534;18.694;2023-03-23T08:13:37;9.00;;;6.78;;
25824;SDS011;13658;44.534;18.694;2023-03-23T08:16:19;8.45;;;5.38;;
25824;SDS011;13658;44.534;18.694;2023-03-23T08:19:02;9.57;;;6.90;;
25824;SDS011;13658;44.534;18.694;2023-03-23T08:22:05;9.90;;;8.13;;
25824;SDS011;13658;44.534;18.694;2023-03-23T08:24:52;12.27;;;7.40;;
25824;SDS011;13658;44.534;18.694;2023-03-23T08:27:35;8.52;;;7.63;;
25824;SDS011;13658;44.534;18.694;2023-03-23T08:30:28;15.40;;;11.88;;
25824;SDS011;13658;44.534;18.694;2023-03-23T08:33:16;20.35;;;16.55;;
25824;SDS011;13658;44.534;18.694;2023-03-23T08:36:05;19.25;;;16.23;;
25824;SDS011;13658;44.534;18.694;2023-03-23T08:38:51;20.23;;;16.13;;
25824;SDS011;13658;44.534;18.694;2023-03-23T08:41:39;24.02;;;18.20;;
25824;SDS011;13658;44.534;18.694;2023-03-23T08:44:28;16.70;;;14.32;;
25824;SDS011;13658;44.534;18.694;2023-03-23T08:47:15;27.35;;;20.10;;
25824;SDS011;13658;44.534;18.694;2023-03-23T08:49:45;30.30;;;21.55;;
25824;SDS011;13658;44.534;18.694;2023-03-23T08:52:47;20.10;;;17.27;;
25824;SDS011;13658;44.534;18.694;2023-03-23T08:55:34;23.20;;;17.40;;
25824;SDS011;13658;44.534;18.694;2023-03-23T08:58:19;22.15;;;19.05;;
25824;SDS011;13658;44.534;18.694;2023-03-23T09:01:08;22.20;;;18.77;;
25824;SDS011;13658;44.534;18.694;2023-03-23T09:03:59;19.65;;;16.13;;
25824;SDS011;13658;44.534;18.694;2023-03-23T09:06:25;18.17;;;14.77;;
25824;SDS011;13658;44.534;18.694;2023-03-23T09:08:53;17.83;;;14.30;;
25824;SDS011;13658;44.534;18.694;2023-03-23T09:11:21;22.33;;;17.80;;
25824;SDS011;13658;44.534;18.694;2023-03-23T09:13:47;14.25;;;11.13;;
25824;SDS011;13658;44.534;18.694;2023-03-23T09:16:13;12.75;;;10.90;;
25824;SDS011;13658;44.534;18.694;2023-03-23T09:18:39;15.48;;;12.77;;
25824;SDS011;13658;44.534;18.694;2023-03-23T09:21:05;12.55;;;9.32;;
25824;SDS011;13658;44.534;18.694;2023-03-23T09:23:32;16.13;;;13.82;;
25824;SDS011;13658;44.534;18.694;2023-03-23T09:26:02;14.63;;;13.02;;
25824;SDS011;13658;44.534;18.694;2023-03-23T09:28:28;13.40;;;9.68;;
25824;SDS011;13658;44.534;18.694;2023-03-23T09:30:55;14.05;;;10.38;;
25824;SDS011;13658;44.534;18.694;2023-03-23T09:33:23;11.05;;;9.90;;
25824;SDS011;13658;44.534;18.694;2023-03-23T09:35:49;13.05;;;10.32;;
25824;SDS011;13658;44.534;18.694;2023-03-23T09:38:15;12.57;;;10.55;;
25824;SDS011;13658;44.534;18.694;2023-03-23T09:40:48;14.88;;;12.38;;
25824;SDS011;13658;44.534;18.694;2023-03-23T09:48:54;7.18;;;6.10;;
25824;SDS011;13658;44.534;18.694;2023-03-23T09:51:30;9.80;;;8.80;;
25824;SDS011;13658;44.534;18.694;2023-03-23T09:54:41;9.45;;;8.25;;
25824;SDS011;13658;44.534;18.694;2023-03-23T09:57:19;8.87;;;7.50;;
25824;SDS011;13658;44.534;18.694;2023-03-23T10:00:21;6.13;;;5.30;;
25824;SDS011;13658;44.534;18.694;2023-03-23T10:05:50;11.40;;;6.65;;
25824;SDS011;13658;44.534;18.694;2023-03-23T10:08:18;7.07;;;5.82;;
25824;SDS011;13658;44.534;18.694;2023-03-23T10:10:55;4.65;;;3.97;;
25824;SDS011;13658;44.534;18.694;2023-03-23T10:16:22;5.97;;;4.05;;
25824;SDS011;13658;44.534;18.694;2023-03-23T10:19:42;5.32;;;3.63;;
25824;SDS011;13658;44.534;18.694;2023-03-23T10:21:54;5.43;;;4.72;;
25824;SDS011;13658;44.534;18.694;2023-03-23T10:24:30;5.15;;;4.65;;
25824;SDS011;13658;44.534;18.694;2023-03-23T10:30:01;6.13;;;4.90;;
25824;SDS011;13658;44.534;18.694;2023-03-23T10:32:51;5.55;;;4.00;;
25824;SDS011;13658;44.534;18.694;2023-03-23T10:35:29;5.07;;;4.57;;
25824;SDS011;13658;44.534;18.694;2023-03-23T10:38:05;8.77;;;5.60;;
25824;SDS011;13658;44.534;18.694;2023-03-23T10:40:43;8.38;;;6.47;;
25824;SDS011;13658;44.534;18.694;2023-03-23T10:43:14;8.82;;;7.35;;
25824;SDS011;13658;44.534;18.694;2023-03-23T10:45:40;6.10;;;4.63;;
25824;SDS011;13658;44.534;18.694;2023-03-23T10:48:12;6.78;;;4.60;;
25824;SDS011;13658;44.534;18.694;2023-03-23T10:50:48;6.90;;;5.43;;
25824;SDS011;13658;44.534;18.694;2023-03-23T10:53:26;5.63;;;5.05;;
25824;SDS011;13658;44.534;18.694;2023-03-23T10:55:58;6.25;;;5.10;;
25824;SDS011;13658;44.534;18.694;2023-03-23T10:58:29;6.30;;;5.28;;
25824;SDS011;13658;44.534;18.694;2023-03-23T11:00:57;7.97;;;4.80;;
25824;SDS011;13658;44.534;18.694;2023-03-23T11:06:02;13.18;;;9.10;;
25824;SDS011;13658;44.534;18.694;2023-03-23T11:08:52;6.70;;;4.90;;
25824;SDS011;13658;44.534;18.694;2023-03-23T11:11:25;7.20;;;5.95;;
25824;SDS011;13658;44.534;18.694;2023-03-23T11:13:58;12.40;;;7.22;;
25824;SDS011;13658;44.534;18.694;2023-03-23T11:16:33;5.53;;;4.15;;
25824;SDS011;13658;44.534;18.694;2023-03-23T11:19:11;6.93;;;4.25;;
25824;SDS011;13658;44.534;18.694;2023-03-23T11:21:39;5.45;;;4.55;;
25824;SDS011;13658;44.534;18.694;2023-03-23T11:24:11;6.43;;;4.68;;
25824;SDS011;13658;44.534;18.694;2023-03-23T11:26:37;6.63;;;4.38;;
25824;SDS011;13658;44.534;18.694;2023-03-23T11:31:46;6.25;;;4.82;;
25824;SDS011;13658;44.534;18.694;2023-03-23T11:34:22;7.57;;;5.07;;
25824;SDS011;13658;44.534;18.694;2023-03-23T11:42:21;5.60;;;4.28;;
25824;SDS011;13658;44.534;18.694;2023-03-23T11:44:53;5.30;;;4.00;;
25824;SDS011;13658;44.534;18.694;2023-03-23T11:50:04;45.80;;;28.52;;
25824;SDS011;13658;44.534;18.694;2023-03-23T11:52:55;9.65;;;6.72;;
25824;SDS011;13658;44.534;18.694;2023-03-23T11:56:09;5.38;;;4.30;;
25824;SDS011;13658;44.534;18.694;2023-03-23T11:58:41;42.88;;;28.70;;
25824;SDS011;13658;44.534;18.694;2023-03-23T12:06:44;9.77;;;5.13;;
25824;SDS011;13658;44.534;18.694;2023-03-23T12:09:33;6.25;;;4.78;;
25824;SDS011;13658;44.534;18.694;2023-03-23T12:12:21;6.97;;;4.90;;
25824;SDS011;13658;44.534;18.694;2023-03-23T12:15:17;8.10;;;6.20;;
25824;SDS011;13658;44.534;18.694;2023-03-23T12:30:47;8.38;;;4.65;;
25824;SDS011;13658;44.534;18.694;2023-03-23T12:33:24;5.47;;;4.00;;
25824;SDS011;13658;44.534;18.694;2023-03-23T12:44:25;5.72;;;3.70;;
25824;SDS011;13658;44.534;18.694;2023-03-23T12:47:11;6.53;;;4.70;;
25824;SDS011;13658;44.534;18.694;2023-03-23T12:49:49;7.82;;;5.00;;
25824;SDS011;13658;44.534;18.694;2023-03-23T12:52:32;7.25;;;4.75;;
25824;SDS011;13658;44.534;18.694;2023-03-23T12:55:18;7.93;;;5.07;;
25824;SDS011;13658;44.534;18.694;2023-03-23T12:57:56;6.00;;;4.30;;
25824;SDS011;13658;44.534;18.694;2023-03-23T13:00:48;5.47;;;4.20;;
25824;SDS011;13658;44.534;18.694;2023-03-23T13:08:59;7.68;;;5.43;;
25824;SDS011;13658;44.534;18.694;2023-03-23T13:11:38;11.75;;;5.57;;
25824;SDS011;13658;44.534;18.694;2023-03-23T13:17:05;8.15;;;5.28;;
25824;SDS011;13658;44.534;18.694;2023-03-23T13:22:45;9.18;;;5.72;;
25824;SDS011;13658;44.534;18.694;2023-03-23T13:25:30;8.43;;;4.30;;
25824;SDS011;13658;44.534;18.694;2023-03-23T13:28:15;6.07;;;4.07;;
25824;SDS011;13658;44.534;18.694;2023-03-23T13:30:55;6.18;;;3.75;;
25824;SDS011;13658;44.534;18.694;2023-03-23T13:33:59;7.20;;;5.15;;
25824;SDS011;13658;44.534;18.694;2023-03-23T13:39:06;5.13;;;3.67;;
25824;SDS011;13658;44.534;18.694;2023-03-23T13:42:00;6.30;;;5.18;;
25824;SDS011;13658;44.534;18.694;2023-03-23T13:44:27;4.35;;;3.53;;
25824;SDS011;13658;44.534;18.694;2023-03-23T13:47:08;6.30;;;3.90;;
25824;SDS011;13658;44.534;18.694;2023-03-23T14:06:16;7.13;;;4.20;;
25824;SDS011;13658;44.534;18.694;2023-03-23T14:09:06;6.68;;;4.78;;
25824;SDS011;13658;44.534;18.694;2023-03-23T14:12:13;7.25;;;4.38;;
25824;SDS011;13658;44.534;18.694;2023-03-23T14:14:45;6.40;;;4.72;;
25824;SDS011;13658;44.534;18.694;2023-03-23T14:17:15;13.00;;;5.68;;
25824;SDS011;13658;44.534;18.694;2023-03-23T14:19:42;6.10;;;4.32;;
25824;SDS011;13658;44.534;18.694;2023-03-23T14:22:19;6.00;;;4.13;;
25824;SDS011;13658;44.534;18.694;2023-03-23T14:24:49;9.13;;;6.20;;
25824;SDS011;13658;44.534;18.694;2023-03-23T14:27:17;10.85;;;7.13;;
25824;SDS011;13658;44.534;18.694;2023-03-23T14:29:44;10.27;;;5.57;;
25824;SDS011;13658;44.534;18.694;2023-03-23T14:32:13;8.93;;;4.43;;
25824;SDS011;13658;44.534;18.694;2023-03-23T14:34:50;8.98;;;5.82;;
25824;SDS011;13658;44.534;18.694;2023-03-23T14:37:16;7.50;;;4.50;;
25824;SDS011;13658;44.534;18.694;2023-03-23T14:39:46;6.38;;;4.30;;
25824;SDS011;13658;44.534;18.694;2023-03-23T14:42:16;9.02;;;4.40;;
25824;SDS011;13658;44.534;18.694;2023-03-23T14:44:47;6.30;;;4.50;;
25824;SDS011;13658;44.534;18.694;2023-03-23T14:47:20;5.78;;;4.32;;
25824;SDS011;13658;44.534;18.694;2023-03-23T14:49:52;8.32;;;4.60;;
25824;SDS011;13658;44.534;18.694;2023-03-23T14:52:21;6.15;;;4.68;;
25824;SDS011;13658;44.534;18.694;2023-03-23T14:54:49;8.13;;;5.93;;
25824;SDS011;13658;44.534;18.694;2023-03-23T14:57:36;6.57;;;4.90;;
25824;SDS011;13658;44.534;18.694;2023-03-23T15:00:07;6.28;;;4.88;;
25824;SDS011;13658;44.534;18.694;2023-03-23T15:02:40;7.47;;;4.80;;
25824;SDS011;13658;44.534;18.694;2023-03-23T15:05:18;7.05;;;4.00;;
25824;SDS011;13658;44.534;18.694;2023-03-23T15:07:50;11.90;;;6.90;;
25824;SDS011;13658;44.534;18.694;2023-03-23T15:10:22;10.93;;;4.82;;
25824;SDS011;13658;44.534;18.694;2023-03-23T15:12:49;9.40;;;5.97;;
25824;SDS011;13658;44.534;18.694;2023-03-23T15:15:22;10.70;;;6.78;;
25824;SDS011;13658;44.534;18.694;2023-03-23T15:17:50;10.35;;;5.20;;
25824;SDS011;13658;44.534;18.694;2023-03-23T15:20:45;7.57;;;5.15;;
25824;SDS011;13658;44.534;18.694;2023-03-23T15:23:17;7.75;;;4.43;;
25824;SDS011;13658;44.534;18.694;2023-03-23T15:25:52;8.15;;;4.32;;
25824;SDS011;13658;44.534;18.694;2023-03-23T15:28:21;8.60;;;5.28;;
25824;SDS011;13658;44.534;18.694;2023-03-23T15:31:03;8.90;;;5.57;;
25824;SDS011;13658;44.534;18.694;2023-03-23T15:33:35;7.43;;;4.10;;
25824;SDS011;13658;44.534;18.694;2023-03-23T15:36:14;7.90;;;4.28;;
25824;SDS011;13658;44.534;18.694;2023-03-23T15:38:45;6.63;;;4.00;;
25824;SDS011;13658;44.534;18.694;2023-03-23T15:41:23;6.28;;;4.00;;
25824;SDS011;13658;44.534;18.694;2023-03-23T15:43:52;5.65;;;3.97;;
25824;SDS011;13658;44.534;18.694;2023-03-23T15:46:24;7.72;;;4.78;;
25824;SDS011;13658;44.534;18.694;2023-03-23T15:48:53;6.35;;;4.82;;
25824;SDS011;13658;44.534;18.694;2023-03-23T15:51:31;6.78;;;5.03;;
25824;SDS011;13658;44.534;18.694;2023-03-23T15:53:58;9.00;;;5.28;;
25824;SDS011;13658;44.534;18.694;2023-03-23T15:56:24;5.85;;;4.28;;
25824;SDS011;13658;44.534;18.694;2023-03-23T15:58:51;5.70;;;4.15;;
25824;SDS011;13658;44.534;18.694;2023-03-23T16:01:19;6.70;;;4.88;;
25824;SDS011;13658;44.534;18.694;2023-03-23T16:03:57;15.65;;;7.10;;
25824;SDS011;13658;44.534;18.694;2023-03-23T16:06:27;15.68;;;6.65;;
25824;SDS011;13658;44.534;18.694;2023-03-23T16:08:56;9.30;;;4.43;;
25824;SDS011;13658;44.534;18.694;2023-03-23T16:11:23;9.30;;;4.65;;
25824;SDS011;13658;44.534;18.694;2023-03-23T16:13:50;8.93;;;4.57;;
25824;SDS011;13658;44.534;18.694;2023-03-23T16:16:18;9.93;;;5.80;;
25824;SDS011;13658;44.534;18.694;2023-03-23T16:18:50;10.57;;;6.45;;
25824;SDS011;13658;44.534;18.694;2023-03-23T16:21:19;7.32;;;4.65;;
25824;SDS011;13658;44.534;18.694;2023-03-23T16:23:46;7.20;;;4.93;;
25824;SDS011;13658;44.534;18.694;2023-03-23T16:26:13;7.57;;;4.85;;
25824;SDS011;13658;44.534;18.694;2023-03-23T16:28:39;5.68;;;4.55;;
25824;SDS011;13658;44.534;18.694;2023-03-23T16:31:06;8.45;;;5.10;;
25824;SDS011;13658;44.534;18.694;2023-03-23T16:33:32;12.68;;;7.35;;
25824;SDS011;13658;44.534;18.694;2023-03-23T16:35:58;18.40;;;10.35;;
25824;SDS011;13658;44.534;18.694;2023-03-23T16:38:24;17.40;;;9.32;;
25824;SDS011;13658;44.534;18.694;2023-03-23T16:40:50;36.55;;;24.02;;